createdAt,value
2022-11-09T00:01:45.371Z,19.71
2022-11-09T00:06:40.722Z,19.58
2022-11-09T00:11:34.865Z,19.63
2022-11-09T00:16:28.365Z,19.74
2022-11-09T00:21:25.663Z,19.61
2022-11-09T00:26:22.605Z,19.62
2022-11-09T00:31:20.272Z,19.71
2022-11-09T00:36:15.417Z,19.74
2022-11-09T00:41:12.018Z,19.74
2022-11-09T00:46:04.847Z,19.73
2022-11-09T00:51:01.894Z,19.73
2022-11-09T00:56:08.099Z,19.77
2022-11-09T01:01:16.168Z,19.64
2022-11-09T01:06:16.011Z,19.63
2022-11-09T01:11:11.610Z,19.76
2022-11-09T01:16:12.038Z,19.74
2022-11-09T01:21:07.741Z,19.77
2022-11-09T01:26:03.019Z,19.66
2022-11-09T01:30:56.950Z,19.79
2022-11-09T01:35:50.084Z,19.78
2022-11-09T01:40:44.243Z,19.65
2022-11-09T01:45:37.766Z,19.75
2022-11-09T01:50:51.539Z,19.78
2022-11-09T01:55:48.241Z,19.69
2022-11-09T02:00:44.689Z,19.54
2022-11-09T02:05:41.101Z,19.77
2022-11-09T02:10:44.629Z,19.79
2022-11-09T02:15:42.774Z,19.77
2022-11-09T02:20:53.102Z,19.77
2022-11-09T02:25:54.179Z,19.57
2022-11-09T02:30:51.077Z,19.74
2022-11-09T02:35:45.198Z,19.76
2022-11-09T02:40:41.419Z,19.76
2022-11-09T02:45:35.912Z,19.76
2022-11-09T02:50:28.691Z,19.75
2022-11-09T02:55:22.684Z,19.65
2022-11-09T03:00:17.858Z,19.75
2022-11-09T03:05:11.462Z,19.64
2022-11-09T03:10:08.879Z,19.70
2022-11-09T03:15:05.107Z,19.77
2022-11-09T03:19:59.625Z,19.75
2022-11-09T03:24:52.793Z,19.75
2022-11-09T03:29:46.093Z,19.74
2022-11-09T03:34:40.269Z,19.74
2022-11-09T03:39:34.415Z,19.72
2022-11-09T03:44:28.169Z,19.62
2022-11-09T03:49:23.904Z,19.76
2022-11-09T03:54:17.594Z,19.62
2022-11-09T03:59:12.114Z,19.65
2022-11-09T04:04:06.189Z,19.75
2022-11-09T04:09:00.398Z,19.65
2022-11-09T04:13:54.409Z,19.75
2022-11-09T04:18:48.463Z,19.75
2022-11-09T04:23:42.319Z,19.74
2022-11-09T04:28:36.109Z,19.72
2022-11-09T04:33:29.312Z,19.62
2022-11-09T04:38:23.179Z,19.61
2022-11-09T04:43:17.170Z,19.71
2022-11-09T04:48:12.849Z,19.74
2022-11-09T04:53:26.071Z,19.75
2022-11-09T04:58:24.837Z,19.58
2022-11-09T05:03:18.461Z,19.71
2022-11-09T05:08:16.374Z,19.71
2022-11-09T05:13:12.460Z,19.60
2022-11-09T05:18:06.406Z,19.71
2022-11-09T05:23:19.027Z,19.67
2022-11-09T05:28:12.910Z,19.67
2022-11-09T05:33:07.202Z,19.65
2022-11-09T05:38:00.847Z,19.67
2022-11-09T05:42:56.732Z,19.64
2022-11-09T05:47:50.313Z,19.67
2022-11-09T05:52:44.373Z,19.54
2022-11-09T05:57:38.466Z,19.64
2022-11-09T06:02:32.170Z,19.57
2022-11-09T06:07:26.193Z,19.58
2022-11-09T06:12:23.926Z,19.70
2022-11-09T06:17:17.869Z,19.56
2022-11-09T06:22:12.691Z,19.67
2022-11-09T06:27:06.511Z,19.69
2022-11-09T06:31:59.629Z,19.68
2022-11-09T06:36:52.841Z,19.67
2022-11-09T06:41:47.815Z,19.55
2022-11-09T06:46:40.334Z,19.56
2022-11-09T06:51:34.046Z,19.57
2022-11-09T06:56:28.039Z,19.74
2022-11-09T07:01:23.623Z,19.80
2022-11-09T07:06:15.761Z,19.62
2022-11-09T07:11:12.009Z,18.98
2022-11-09T07:16:06.638Z,18.84
2022-11-09T07:21:00.466Z,18.98
2022-11-09T07:25:53.958Z,18.89
2022-11-09T07:30:50.439Z,18.88
2022-11-09T07:35:44.557Z,18.89
2022-11-09T07:40:37.867Z,18.71
2022-11-09T07:45:31.843Z,18.81
2022-11-09T07:50:26.220Z,18.96
2022-11-09T07:55:20.719Z,18.92
2022-11-09T08:00:18.767Z,18.74
2022-11-09T08:05:16.513Z,18.68
2022-11-09T08:10:11.295Z,18.80
2022-11-09T08:15:05.585Z,18.70
2022-11-09T08:20:00.030Z,18.74
2022-11-09T08:24:54.425Z,18.64
2022-11-09T08:29:47.055Z,18.52
2022-11-09T08:34:41.612Z,18.63
2022-11-09T08:39:36.086Z,18.59
2022-11-09T08:44:30.202Z,18.70
2022-11-09T08:49:24.478Z,18.62
2022-11-09T08:54:18.548Z,18.68
2022-11-09T08:59:13.130Z,18.59
2022-11-09T09:04:06.959Z,18.71
2022-11-09T09:09:01.437Z,18.42
2022-11-09T09:13:54.922Z,18.45
2022-11-09T09:18:49.235Z,18.59
2022-11-09T09:23:42.412Z,18.59
2022-11-09T09:28:35.231Z,18.49
2022-11-09T09:33:29.279Z,18.62
2022-11-09T09:38:24.071Z,18.70
2022-11-09T09:43:42.725Z,18.69
2022-11-09T09:48:45.262Z,18.98
2022-11-09T09:53:47.922Z,19.02
2022-11-09T09:59:00.343Z,18.93
2022-11-09T10:03:53.941Z,19.11
2022-11-09T10:09:18.663Z,19.06
2022-11-09T10:14:14.898Z,19.19
2022-11-09T10:19:16.461Z,19.17
2022-11-09T10:25:12.821Z,19.26
2022-11-09T10:30:01.531Z,19.26
2022-11-09T10:35:03.386Z,19.11
2022-11-09T10:40:08.080Z,19.28
2022-11-09T10:45:35.417Z,19.17
2022-11-09T10:50:53.115Z,19.34
2022-11-09T10:56:21.215Z,19.33
2022-11-09T11:01:55.940Z,19.39
2022-11-09T11:07:23.025Z,19.26
2022-11-09T11:12:35.166Z,19.34
2022-11-09T11:17:47.306Z,19.26
2022-11-09T11:23:25.679Z,19.39
2022-11-09T11:28:54.810Z,19.28
2022-11-09T11:34:32.074Z,19.41
2022-11-09T11:40:31.122Z,19.42
2022-11-09T11:46:16.053Z,19.42
2022-11-09T11:51:42.780Z,19.42
2022-11-09T11:57:23.826Z,19.45
2022-11-09T12:03:05.990Z,19.43
2022-11-09T12:08:34.324Z,19.34
2022-11-09T12:13:57.692Z,19.48
2022-11-09T12:19:36.586Z,19.48
2022-11-09T12:25:06.266Z,19.49
2022-11-09T12:30:29.323Z,19.55
2022-11-09T12:35:47.975Z,19.59
2022-11-09T12:41:05.432Z,19.59
2022-11-09T12:46:20.184Z,19.64
2022-11-09T12:51:34.094Z,19.46
2022-11-09T12:57:15.089Z,19.73
2022-11-09T13:02:36.759Z,19.70
2022-11-09T13:07:51.847Z,19.60
2022-11-09T13:13:18.728Z,19.79
2022-11-09T13:18:35.846Z,19.78
2022-11-09T13:24:08.052Z,19.60
2022-11-09T13:29:41.710Z,19.71
2022-11-09T13:34:58.516Z,19.68
2022-11-09T13:40:31.357Z,19.75
2022-11-09T13:45:46.263Z,19.71
2022-11-09T13:51:35.510Z,19.71
2022-11-09T13:56:49.040Z,19.71
2022-11-09T14:02:02.300Z,19.74
2022-11-09T14:07:22.737Z,19.71
2022-11-09T14:12:50.509Z,19.72
2022-11-09T14:18:26.450Z,19.75
2022-11-09T14:23:38.995Z,19.70
2022-11-09T14:28:51.023Z,19.61
2022-11-09T14:34:05.467Z,19.73
2022-11-09T14:39:37.648Z,19.76
2022-11-09T14:44:51.363Z,19.72
2022-11-09T14:50:04.175Z,19.73
2022-11-09T14:55:19.393Z,19.73
2022-11-09T15:00:33.830Z,19.73
2022-11-09T15:05:45.023Z,19.73
2022-11-09T15:10:57.718Z,19.65
2022-11-09T15:16:24.348Z,19.77
2022-11-09T15:21:58.033Z,19.77
2022-11-09T15:27:30.223Z,19.77
2022-11-09T15:32:42.491Z,19.77
2022-11-09T15:37:54.949Z,19.65
2022-11-09T15:43:06.138Z,19.76
2022-11-09T15:48:18.679Z,19.78
2022-11-09T15:53:31.314Z,19.66
2022-11-09T15:58:43.279Z,19.66
2022-11-09T16:03:54.899Z,19.70
2022-11-09T16:09:07.117Z,19.80
2022-11-09T16:14:21.736Z,19.80
2022-11-09T16:19:34.070Z,19.70
2022-11-09T16:24:47.058Z,19.70
2022-11-09T16:29:58.903Z,19.81
2022-11-09T16:35:28.456Z,19.80
2022-11-09T16:40:40.757Z,19.79
2022-11-09T16:45:53.018Z,19.78
2022-11-09T16:51:05.654Z,19.57
2022-11-09T16:56:17.616Z,19.79
2022-11-09T17:01:30.284Z,19.76
2022-11-09T17:06:42.168Z,19.58
2022-11-09T17:11:54.517Z,19.81
2022-11-09T17:17:05.279Z,19.67
2022-11-09T17:22:16.484Z,19.81
2022-11-09T17:27:27.784Z,19.83
2022-11-09T17:32:41.331Z,19.69
2022-11-09T17:37:54.004Z,19.81
2022-11-09T17:43:06.003Z,19.82
2022-11-09T17:48:18.883Z,19.89
2022-11-09T17:53:30.963Z,19.74
2022-11-09T17:58:43.252Z,19.98
2022-11-09T18:03:55.665Z,19.93
2022-11-09T18:14:38.674Z,19.95
2022-11-09T18:19:51.092Z,19.98
2022-11-09T18:25:02.685Z,19.85
2022-11-09T18:30:15.379Z,19.93
2022-11-09T18:35:31.798Z,19.85
2022-11-09T18:40:44.238Z,20.03
2022-11-09T18:46:01.107Z,19.90
2022-11-09T18:51:12.919Z,20.02
2022-11-09T18:56:25.973Z,19.92
2022-11-09T19:01:39.520Z,19.96
2022-11-09T19:06:50.841Z,19.93
2022-11-09T19:12:07.600Z,19.97
2022-11-09T19:17:19.026Z,19.83
2022-11-09T19:22:31.409Z,20.05
2022-11-09T19:27:42.773Z,20.02
2022-11-09T19:32:55.640Z,19.98
2022-11-09T19:38:08.916Z,19.91
2022-11-09T19:43:20.790Z,19.98
2022-11-09T19:48:52.597Z,20.11
2022-11-09T19:54:05.041Z,20.14
2022-11-09T19:59:17.576Z,20.11
2022-11-09T20:04:30.191Z,20.21
2022-11-09T20:09:42.299Z,20.22
2022-11-09T20:14:54.120Z,20.27
2022-11-09T20:20:06.418Z,20.29
2022-11-09T20:25:19.252Z,20.27
2022-11-09T20:30:31.049Z,20.26
2022-11-09T20:35:46.807Z,20.25
2022-11-09T20:41:00.648Z,20.30
2022-11-09T20:46:21.210Z,20.43
2022-11-09T20:51:32.959Z,20.48
2022-11-09T20:56:45.813Z,20.44
2022-11-09T21:01:57.847Z,20.57
2022-11-09T21:07:09.778Z,20.48
2022-11-09T21:12:22.141Z,20.43
2022-11-09T21:17:34.072Z,20.57
2022-11-09T21:23:04.917Z,20.59
2022-11-09T21:28:36.108Z,20.55
2022-11-09T21:33:48.383Z,20.29
2022-11-09T21:39:02.160Z,20.44
2022-11-09T21:44:14.615Z,20.50
2022-11-09T21:49:25.995Z,20.44
2022-11-09T21:54:37.830Z,20.40
2022-11-09T21:59:50.223Z,20.25
2022-11-09T22:05:01.732Z,20.48
2022-11-09T22:10:14.140Z,20.35
2022-11-09T22:15:44.035Z,20.36
2022-11-09T22:20:57.048Z,20.43
2022-11-09T22:26:10.031Z,20.30
2022-11-09T22:31:22.274Z,20.40
2022-11-09T22:36:33.738Z,20.37
2022-11-09T22:41:46.025Z,20.38
2022-11-09T22:46:58.499Z,20.25
2022-11-09T22:52:11.154Z,20.26
2022-11-09T22:57:23.822Z,20.35
2022-11-09T23:02:36.407Z,20.32
2022-11-09T23:07:47.938Z,20.35
2022-11-09T23:13:01.038Z,20.35
2022-11-09T23:18:31.508Z,20.23
2022-11-09T23:23:43.692Z,20.35
2022-11-09T23:28:54.935Z,20.28
2022-11-09T23:34:10.044Z,20.23
2022-11-09T23:39:22.422Z,20.32
2022-11-09T23:44:34.620Z,20.30
2022-11-09T23:49:46.562Z,20.29
2022-11-09T23:54:58.966Z,20.26
